Disclaimer

Please do not use the information listed here in-flight or in-navigation, as they are not provided to us by the airports but are provided by volunteers, so they might be outdated.

Search


Regions


Airport information page

Radio informations:
LORIENT TWR - 122.7 MHz
Ground (GND) - 119.7 MHz
Automatic Terminal Information Service (ATIS) - 129.125 MHz
LORIENT APP - 123.0 MHz

Airport informations:
Latitude: 47° 45' 38.00" N
Longitude: 003° 26' 24.00" W
Elevation: 160 feet - 49 meters
Operating hours: Remarks
Operating agency: Military
Timezone: UTC+1(+2DT) - Last Sunday in March to last Sunday in October
Fuel: Jet A1, without icing nhibitor.

100/130 MIL Spec, low lead, aviation gasoline (BLUE)

Runway information:
02/20 - 5479 x 148 feet< - >1670 x 45 meters
07/25 - 7884 x 148 feet< - >2403 x 45 meters

Recent METARs:
LFRH 191700Z AUTO 06013KT 030V090 CAVOK 05/M05 Q1010 BECMG 06015G25KT
LFRH 191730Z AUTO 06013KT CAVOK 04/M04 Q1010 NOSIG
LFRH 191800Z AUTO 06014KT CAVOK 04/M03 Q1010 NOSIG

Airport on the map: